Terminal Aerodrome Forecast
Issued by NWS

Home | Current Version | Previous Version | Graphics & Text | Print | Product List | Glossary On
Versions: 1 2 3 4 5 6 7 8 9 10 11 12 13 14 15
000
FTUS43 KICT 032338
TAFRSL
TAF
KRSL 032338Z 0400/0424 01014KT P6SM SCT035 BKN100
     FM040500 01015G22KT P6SM BKN035 OVC090
     FM040800 02015G22KT 4SM -SN OVC022
     FM041600 01015G22KT P6SM SCT025 BKN100=

USA.gov is the U.S. government's official web portal to all federal, state and local government web resources and services.